sensor_id;sensor_type;location;lat;lon;timestamp;P1;durP1;ratioP1;P2;durP2;ratioP2
39434;SDS011;66825;51.880;-0.518;2023-09-19T00:00:26;1.38;;;0.70;;
39434;SDS011;66825;51.880;-0.518;2023-09-19T00:02:56;1.10;;;0.60;;
39434;SDS011;66825;51.880;-0.518;2023-09-19T00:05:25;1.02;;;0.70;;
39434;SDS011;66825;51.880;-0.518;2023-09-19T00:07:53;1.42;;;0.63;;
39434;SDS011;66825;51.880;-0.518;2023-09-19T00:10:22;1.63;;;0.85;;
39434;SDS011;66825;51.880;-0.518;2023-09-19T00:12:53;1.52;;;0.68;;
39434;SDS011;66825;51.880;-0.518;2023-09-19T00:15:20;1.45;;;0.80;;
39434;SDS011;66825;51.880;-0.518;2023-09-19T00:17:49;1.17;;;0.70;;
39434;SDS011;66825;51.880;-0.518;2023-09-19T00:20:17;1.58;;;0.80;;
39434;SDS011;66825;51.880;-0.518;2023-09-19T00:22:43;1.20;;;0.80;;
39434;SDS011;66825;51.880;-0.518;2023-09-19T00:25:09;1.08;;;0.70;;
39434;SDS011;66825;51.880;-0.518;2023-09-19T00:27:35;0.80;;;0.60;;
39434;SDS011;66825;51.880;-0.518;2023-09-19T00:30:06;1.73;;;0.90;;
39434;SDS011;66825;51.880;-0.518;2023-09-19T00:32:38;1.02;;;0.60;;
39434;SDS011;66825;51.880;-0.518;2023-09-19T00:35:04;1.45;;;0.60;;
39434;SDS011;66825;51.880;-0.518;2023-09-19T00:37:29;1.13;;;0.60;;
39434;SDS011;66825;51.880;-0.518;2023-09-19T00:39:55;1.02;;;0.60;;
39434;SDS011;66825;51.880;-0.518;2023-09-19T00:42:21;1.45;;;0.70;;
39434;SDS011;66825;51.880;-0.518;2023-09-19T00:44:46;1.10;;;0.60;;
39434;SDS011;66825;51.880;-0.518;2023-09-19T00:47:12;1.00;;;0.57;;
39434;SDS011;66825;51.880;-0.518;2023-09-19T00:49:45;1.65;;;0.80;;
39434;SDS011;66825;51.880;-0.518;2023-09-19T00:52:15;1.10;;;0.77;;
39434;SDS011;66825;51.880;-0.518;2023-09-19T00:54:45;1.10;;;0.90;;
39434;SDS011;66825;51.880;-0.518;2023-09-19T00:57:12;1.08;;;0.60;;
39434;SDS011;66825;51.880;-0.518;2023-09-19T00:59:37;1.65;;;0.80;;
39434;SDS011;66825;51.880;-0.518;2023-09-19T01:02:03;1.27;;;0.65;;
39434;SDS011;66825;51.880;-0.518;2023-09-19T01:04:29;0.80;;;0.60;;
39434;SDS011;66825;51.880;-0.518;2023-09-19T01:06:55;0.90;;;0.60;;
39434;SDS011;66825;51.880;-0.518;2023-09-19T01:09:23;1.52;;;0.90;;
39434;SDS011;66825;51.880;-0.518;2023-09-19T01:11:49;0.85;;;0.60;;
39434;SDS011;66825;51.880;-0.518;2023-09-19T01:17:17;2.03;;;0.70;;
39434;SDS011;66825;51.880;-0.518;2023-09-19T01:26:17;1.17;;;0.50;;
39434;SDS011;66825;51.880;-0.518;2023-09-19T01:28:56;1.05;;;0.60;;
39434;SDS011;66825;51.880;-0.518;2023-09-19T01:31:35;1.52;;;0.70;;
39434;SDS011;66825;51.880;-0.518;2023-09-19T01:34:03;1.20;;;0.63;;
39434;SDS011;66825;51.880;-0.518;2023-09-19T01:36:34;1.35;;;0.77;;
39434;SDS011;66825;51.880;-0.518;2023-09-19T01:39:04;2.03;;;0.90;;
39434;SDS011;66825;51.880;-0.518;2023-09-19T01:44:12;1.88;;;0.88;;
39434;SDS011;66825;51.880;-0.518;2023-09-19T01:46:46;1.25;;;0.60;;
39434;SDS011;66825;51.880;-0.518;2023-09-19T01:52:09;0.95;;;0.52;;
39434;SDS011;66825;51.880;-0.518;2023-09-19T01:54:46;1.48;;;0.70;;
39434;SDS011;66825;51.880;-0.518;2023-09-19T01:57:17;1.33;;;0.70;;
39434;SDS011;66825;51.880;-0.518;2023-09-19T01:59:50;1.42;;;0.70;;
39434;SDS011;66825;51.880;-0.518;2023-09-19T02:02:21;1.00;;;0.60;;
39434;SDS011;66825;51.880;-0.518;2023-09-19T02:04:48;1.23;;;0.70;;
39434;SDS011;66825;51.880;-0.518;2023-09-19T02:07:15;1.52;;;0.70;;
39434;SDS011;66825;51.880;-0.518;2023-09-19T02:09:41;1.08;;;0.65;;
39434;SDS011;66825;51.880;-0.518;2023-09-19T02:12:08;0.95;;;0.65;;
39434;SDS011;66825;51.880;-0.518;2023-09-19T02:14:34;1.60;;;0.90;;
39434;SDS011;66825;51.880;-0.518;2023-09-19T02:17:01;1.23;;;0.80;;
39434;SDS011;66825;51.880;-0.518;2023-09-19T02:19:32;1.27;;;0.70;;
39434;SDS011;66825;51.880;-0.518;2023-09-19T02:21:59;1.42;;;0.70;;
39434;SDS011;66825;51.880;-0.518;2023-09-19T02:24:25;1.20;;;0.70;;
39434;SDS011;66825;51.880;-0.518;2023-09-19T02:26:52;1.98;;;0.90;;
39434;SDS011;66825;51.880;-0.518;2023-09-19T02:29:17;0.90;;;0.57;;
39434;SDS011;66825;51.880;-0.518;2023-09-19T02:31:43;1.02;;;0.65;;
39434;SDS011;66825;51.880;-0.518;2023-09-19T02:34:08;1.75;;;0.80;;
39434;SDS011;66825;51.880;-0.518;2023-09-19T02:36:35;1.50;;;0.90;;
39434;SDS011;66825;51.880;-0.518;2023-09-19T02:39:01;1.48;;;0.73;;
39434;SDS011;66825;51.880;-0.518;2023-09-19T02:41:26;1.15;;;0.77;;
39434;SDS011;66825;51.880;-0.518;2023-09-19T02:43:54;1.33;;;0.70;;
39434;SDS011;66825;51.880;-0.518;2023-09-19T02:46:20;1.73;;;0.90;;
39434;SDS011;66825;51.880;-0.518;2023-09-19T02:48:46;1.77;;;0.80;;
39434;SDS011;66825;51.880;-0.518;2023-09-19T02:51:12;1.25;;;0.75;;
39434;SDS011;66825;51.880;-0.518;2023-09-19T02:53:38;1.35;;;0.70;;
39434;SDS011;66825;51.880;-0.518;2023-09-19T02:56:04;1.17;;;0.68;;
39434;SDS011;66825;51.880;-0.518;2023-09-19T02:58:30;1.35;;;0.70;;
39434;SDS011;66825;51.880;-0.518;2023-09-19T03:01:07;1.10;;;0.60;;
39434;SDS011;66825;51.880;-0.518;2023-09-19T03:03:33;1.55;;;0.80;;
39434;SDS011;66825;51.880;-0.518;2023-09-19T03:05:59;0.95;;;0.52;;
39434;SDS011;66825;51.880;-0.518;2023-09-19T03:08:24;1.63;;;0.63;;
39434;SDS011;66825;51.880;-0.518;2023-09-19T03:10:50;1.60;;;0.90;;
39434;SDS011;66825;51.880;-0.518;2023-09-19T03:13:16;1.90;;;0.80;;
39434;SDS011;66825;51.880;-0.518;2023-09-19T03:15:42;1.88;;;0.70;;
39434;SDS011;66825;51.880;-0.518;2023-09-19T03:18:11;0.85;;;0.50;;
39434;SDS011;66825;51.880;-0.518;2023-09-19T03:20:37;1.33;;;0.70;;
39434;SDS011;66825;51.880;-0.518;2023-09-19T03:23:03;1.38;;;0.70;;
39434;SDS011;66825;51.880;-0.518;2023-09-19T03:25:33;1.73;;;1.08;;
39434;SDS011;66825;51.880;-0.518;2023-09-19T03:27:59;1.15;;;0.70;;
39434;SDS011;66825;51.880;-0.518;2023-09-19T03:30:26;1.35;;;0.80;;
39434;SDS011;66825;51.880;-0.518;2023-09-19T03:32:51;1.60;;;0.95;;
39434;SDS011;66825;51.880;-0.518;2023-09-19T03:35:17;1.40;;;0.77;;
39434;SDS011;66825;51.880;-0.518;2023-09-19T03:37:43;1.02;;;0.80;;
39434;SDS011;66825;51.880;-0.518;2023-09-19T03:40:09;1.85;;;0.85;;
39434;SDS011;66825;51.880;-0.518;2023-09-19T03:42:39;1.23;;;0.70;;
39434;SDS011;66825;51.880;-0.518;2023-09-19T03:45:06;1.33;;;0.77;;
39434;SDS011;66825;51.880;-0.518;2023-09-19T03:47:32;1.33;;;0.80;;
39434;SDS011;66825;51.880;-0.518;2023-09-19T03:49:58;2.08;;;1.02;;
39434;SDS011;66825;51.880;-0.518;2023-09-19T03:52:23;1.80;;;0.80;;
39434;SDS011;66825;51.880;-0.518;2023-09-19T03:54:50;1.50;;;0.90;;
39434;SDS011;66825;51.880;-0.518;2023-09-19T03:57:15;1.63;;;0.70;;
39434;SDS011;66825;51.880;-0.518;2023-09-19T03:59:45;1.63;;;0.70;;
39434;SDS011;66825;51.880;-0.518;2023-09-19T04:02:11;1.30;;;0.70;;
39434;SDS011;66825;51.880;-0.518;2023-09-19T04:04:47;1.38;;;0.80;;
39434;SDS011;66825;51.880;-0.518;2023-09-19T04:07:13;1.67;;;0.80;;
39434;SDS011;66825;51.880;-0.518;2023-09-19T04:09:39;1.95;;;0.90;;
39434;SDS011;66825;51.880;-0.518;2023-09-19T04:12:04;1.80;;;0.90;;
39434;SDS011;66825;51.880;-0.518;2023-09-19T04:14:30;1.33;;;0.77;;
39434;SDS011;66825;51.880;-0.518;2023-09-19T04:16:56;1.42;;;0.73;;
39434;SDS011;66825;51.880;-0.518;2023-09-19T04:19:21;2.08;;;1.02;;
39434;SDS011;66825;51.880;-0.518;2023-09-19T04:21:47;1.15;;;0.63;;
39434;SDS011;66825;51.880;-0.518;2023-09-19T04:24:12;1.60;;;0.90;;
39434;SDS011;66825;51.880;-0.518;2023-09-19T04:26:38;1.92;;;0.80;;
39434;SDS011;66825;51.880;-0.518;2023-09-19T04:29:04;1.73;;;0.90;;
39434;SDS011;66825;51.880;-0.518;2023-09-19T04:31:30;2.42;;;0.80;;
39434;SDS011;66825;51.880;-0.518;2023-09-19T04:33:56;1.65;;;0.70;;
39434;SDS011;66825;51.880;-0.518;2023-09-19T04:36:24;1.55;;;0.70;;
39434;SDS011;66825;51.880;-0.518;2023-09-19T04:38:49;1.25;;;0.70;;
39434;SDS011;66825;51.880;-0.518;2023-09-19T04:41:15;2.17;;;1.10;;
39434;SDS011;66825;51.880;-0.518;2023-09-19T04:43:40;1.65;;;0.95;;
39434;SDS011;66825;51.880;-0.518;2023-09-19T04:46:06;1.33;;;0.80;;
39434;SDS011;66825;51.880;-0.518;2023-09-19T04:48:32;1.73;;;0.90;;
39434;SDS011;66825;51.880;-0.518;2023-09-19T04:50:59;1.55;;;0.70;;
39434;SDS011;66825;51.880;-0.518;2023-09-19T04:53:25;1.42;;;0.82;;
39434;SDS011;66825;51.880;-0.518;2023-09-19T04:55:51;2.22;;;0.90;;
39434;SDS011;66825;51.880;-0.518;2023-09-19T04:58:21;1.45;;;0.68;;
39434;SDS011;66825;51.880;-0.518;2023-09-19T05:00:47;1.20;;;0.73;;
39434;SDS011;66825;51.880;-0.518;2023-09-19T05:03:12;1.20;;;0.75;;
39434;SDS011;66825;51.880;-0.518;2023-09-19T05:05:38;1.00;;;0.70;;
39434;SDS011;66825;51.880;-0.518;2023-09-19T05:08:04;1.50;;;0.77;;
39434;SDS011;66825;51.880;-0.518;2023-09-19T05:10:31;1.90;;;0.90;;
39434;SDS011;66825;51.880;-0.518;2023-09-19T05:12:57;1.15;;;0.80;;
39434;SDS011;66825;51.880;-0.518;2023-09-19T05:15:23;1.58;;;0.80;;
39434;SDS011;66825;51.880;-0.518;2023-09-19T05:17:49;1.70;;;0.73;;
39434;SDS011;66825;51.880;-0.518;2023-09-19T05:20:20;1.73;;;0.90;;
39434;SDS011;66825;51.880;-0.518;2023-09-19T05:23:12;1.67;;;1.00;;
39434;SDS011;66825;51.880;-0.518;2023-09-19T05:25:38;1.33;;;0.63;;
39434;SDS011;66825;51.880;-0.518;2023-09-19T05:28:05;1.10;;;0.70;;
39434;SDS011;66825;51.880;-0.518;2023-09-19T05:30:32;1.27;;;0.70;;
39434;SDS011;66825;51.880;-0.518;2023-09-19T05:32:58;1.50;;;0.77;;
39434;SDS011;66825;51.880;-0.518;2023-09-19T05:35:24;0.90;;;0.60;;
39434;SDS011;66825;51.880;-0.518;2023-09-19T05:37:51;2.25;;;0.77;;
39434;SDS011;66825;51.880;-0.518;2023-09-19T05:40:18;1.30;;;0.80;;
39434;SDS011;66825;51.880;-0.518;2023-09-19T05:42:44;1.05;;;0.68;;
39434;SDS011;66825;51.880;-0.518;2023-09-19T05:45:10;1.05;;;0.60;;
39434;SDS011;66825;51.880;-0.518;2023-09-19T05:47:41;1.30;;;0.70;;
39434;SDS011;66825;51.880;-0.518;2023-09-19T05:50:11;1.23;;;0.82;;
39434;SDS011;66825;51.880;-0.518;2023-09-19T05:52:37;0.90;;;0.60;;
39434;SDS011;66825;51.880;-0.518;2023-09-19T05:55:06;1.27;;;0.70;;
39434;SDS011;66825;51.880;-0.518;2023-09-19T05:57:33;1.25;;;0.60;;
39434;SDS011;66825;51.880;-0.518;2023-09-19T05:59:59;1.65;;;0.80;;
39434;SDS011;66825;51.880;-0.518;2023-09-19T06:02:25;1.80;;;0.80;;
39434;SDS011;66825;51.880;-0.518;2023-09-19T06:04:55;1.23;;;0.60;;
39434;SDS011;66825;51.880;-0.518;2023-09-19T06:07:24;0.88;;;0.65;;
39434;SDS011;66825;51.880;-0.518;2023-09-19T06:09:51;1.42;;;0.85;;
39434;SDS011;66825;51.880;-0.518;2023-09-19T06:12:20;1.35;;;0.70;;
39434;SDS011;66825;51.880;-0.518;2023-09-19T06:14:46;1.10;;;0.65;;
39434;SDS011;66825;51.880;-0.518;2023-09-19T06:17:11;1.40;;;0.68;;
39434;SDS011;66825;51.880;-0.518;2023-09-19T06:19:37;1.55;;;0.65;;
39434;SDS011;66825;51.880;-0.518;2023-09-19T06:22:02;0.90;;;0.52;;
39434;SDS011;66825;51.880;-0.518;2023-09-19T06:24:28;1.52;;;0.80;;
39434;SDS011;66825;51.880;-0.518;2023-09-19T06:26:54;1.15;;;0.73;;
39434;SDS011;66825;51.880;-0.518;2023-09-19T06:29:20;2.05;;;0.80;;
39434;SDS011;66825;51.880;-0.518;2023-09-19T06:31:46;1.10;;;0.60;;
39434;SDS011;66825;51.880;-0.518;2023-09-19T06:34:12;1.33;;;0.70;;
39434;SDS011;66825;51.880;-0.518;2023-09-19T06:36:40;1.17;;;0.65;;
39434;SDS011;66825;51.880;-0.518;2023-09-19T06:39:06;0.90;;;0.68;;
39434;SDS011;66825;51.880;-0.518;2023-09-19T06:41:36;1.53;;;0.73;;
39434;SDS011;66825;51.880;-0.518;2023-09-19T06:44:03;0.98;;;0.65;;
39434;SDS011;66825;51.880;-0.518;2023-09-19T06:46:30;1.17;;;0.60;;
39434;SDS011;66825;51.880;-0.518;2023-09-19T06:49:00;1.25;;;0.68;;
39434;SDS011;66825;51.880;-0.518;2023-09-19T06:51:31;1.08;;;0.60;;
39434;SDS011;66825;51.880;-0.518;2023-09-19T06:53:56;1.05;;;0.60;;
39434;SDS011;66825;51.880;-0.518;2023-09-19T06:56:23;1.27;;;0.65;;
39434;SDS011;66825;51.880;-0.518;2023-09-19T06:58:50;1.23;;;0.70;;
39434;SDS011;66825;51.880;-0.518;2023-09-19T07:01:16;1.25;;;0.60;;
39434;SDS011;66825;51.880;-0.518;2023-09-19T07:03:43;0.90;;;0.68;;
39434;SDS011;66825;51.880;-0.518;2023-09-19T07:06:10;1.33;;;0.70;;
39434;SDS011;66825;51.880;-0.518;2023-09-19T07:08:36;1.23;;;0.70;;
39434;SDS011;66825;51.880;-0.518;2023-09-19T07:11:03;0.90;;;0.50;;
39434;SDS011;66825;51.880;-0.518;2023-09-19T07:13:31;1.50;;;0.80;;
39434;SDS011;66825;51.880;-0.518;2023-09-19T07:15:58;1.70;;;0.73;;
39434;SDS011;66825;51.880;-0.518;2023-09-19T07:18:24;2.58;;;0.90;;
39434;SDS011;66825;51.880;-0.518;2023-09-19T07:20:50;2.35;;;0.90;;
39434;SDS011;66825;51.880;-0.518;2023-09-19T07:23:16;2.97;;;1.13;;
39434;SDS011;66825;51.880;-0.518;2023-09-19T07:25:43;2.60;;;1.00;;
39434;SDS011;66825;51.880;-0.518;2023-09-19T07:28:08;3.72;;;1.10;;
39434;SDS011;66825;51.880;-0.518;2023-09-19T07:30:36;2.28;;;0.98;;
39434;SDS011;66825;51.880;-0.518;2023-09-19T07:33:06;3.50;;;1.38;;
39434;SDS011;66825;51.880;-0.518;2023-09-19T07:35:32;3.38;;;1.30;;
39434;SDS011;66825;51.880;-0.518;2023-09-19T07:37:58;2.75;;;1.10;;
39434;SDS011;66825;51.880;-0.518;2023-09-19T07:40:26;4.13;;;1.38;;
39434;SDS011;66825;51.880;-0.518;2023-09-19T07:42:57;2.95;;;1.17;;
39434;SDS011;66825;51.880;-0.518;2023-09-19T07:45:26;4.53;;;1.40;;
39434;SDS011;66825;51.880;-0.518;2023-09-19T07:47:53;3.63;;;1.30;;
39434;SDS011;66825;51.880;-0.518;2023-09-19T07:50:19;3.90;;;1.30;;
39434;SDS011;66825;51.880;-0.518;2023-09-19T07:52:45;4.47;;;1.50;;
39434;SDS011;66825;51.880;-0.518;2023-09-19T07:55:11;3.70;;;1.30;;
39434;SDS011;66825;51.880;-0.518;2023-09-19T07:57:41;4.37;;;1.57;;
39434;SDS011;66825;51.880;-0.518;2023-09-19T08:00:07;3.63;;;1.40;;
39434;SDS011;66825;51.880;-0.518;2023-09-19T08:02:36;3.75;;;1.67;;
39434;SDS011;66825;51.880;-0.518;2023-09-19T08:05:08;4.43;;;1.65;;
39434;SDS011;66825;51.880;-0.518;2023-09-19T08:07:38;3.67;;;1.40;;
39434;SDS011;66825;51.880;-0.518;2023-09-19T08:10:05;3.38;;;1.52;;
39434;SDS011;66825;51.880;-0.518;2023-09-19T08:12:38;4.20;;;1.83;;
39434;SDS011;66825;51.880;-0.518;2023-09-19T08:15:11;4.13;;;1.75;;
39434;SDS011;66825;51.880;-0.518;2023-09-19T08:17:40;3.20;;;1.50;;
39434;SDS011;66825;51.880;-0.518;2023-09-19T08:20:06;4.00;;;1.75;;
39434;SDS011;66825;51.880;-0.518;2023-09-19T08:22:32;5.38;;;1.90;;
39434;SDS011;66825;51.880;-0.518;2023-09-19T08:24:58;4.15;;;1.50;;
39434;SDS011;66825;51.880;-0.518;2023-09-19T08:27:23;5.40;;;1.60;;
39434;SDS011;66825;51.880;-0.518;2023-09-19T08:29:52;4.05;;;2.13;;
39434;SDS011;66825;51.880;-0.518;2023-09-19T08:32:18;4.05;;;1.98;;
39434;SDS011;66825;51.880;-0.518;2023-09-19T08:34:49;6.55;;;2.00;;
39434;SDS011;66825;51.880;-0.518;2023-09-19T08:37:14;5.68;;;2.20;;
39434;SDS011;66825;51.880;-0.518;2023-09-19T08:39:42;5.30;;;2.17;;
39434;SDS011;66825;51.880;-0.518;2023-09-19T08:42:07;7.95;;;2.03;;
39434;SDS011;66825;51.880;-0.518;2023-09-19T08:44:36;4.53;;;1.92;;
39434;SDS011;66825;51.880;-0.518;2023-09-19T08:47:09;5.38;;;2.45;;
39434;SDS011;66825;51.880;-0.518;2023-09-19T08:49:41;4.80;;;2.10;;
39434;SDS011;66825;51.880;-0.518;2023-09-19T08:55:09;7.07;;;2.42;;
39434;SDS011;66825;51.880;-0.518;2023-09-19T08:57:38;6.38;;;2.60;;
39434;SDS011;66825;51.880;-0.518;2023-09-19T09:00:08;4.55;;;2.10;;
39434;SDS011;66825;51.880;-0.518;2023-09-19T09:02:40;5.10;;;2.30;;
39434;SDS011;66825;51.880;-0.518;2023-09-19T09:05:11;6.57;;;2.60;;
39434;SDS011;66825;51.880;-0.518;2023-09-19T09:07:37;6.25;;;2.50;;
39434;SDS011;66825;51.880;-0.518;2023-09-19T09:10:04;7.03;;;2.58;;
39434;SDS011;66825;51.880;-0.518;2023-09-19T09:12:29;5.00;;;2.20;;
39434;SDS011;66825;51.880;-0.518;2023-09-19T09:14:55;5.50;;;2.45;;
39434;SDS011;66825;51.880;-0.518;2023-09-19T09:17:22;7.60;;;3.17;;
39434;SDS011;66825;51.880;-0.518;2023-09-19T09:19:52;10.05;;;3.10;;
39434;SDS011;66825;51.880;-0.518;2023-09-19T09:22:18;11.25;;;3.75;;
39434;SDS011;66825;51.880;-0.518;2023-09-19T09:27:26;8.45;;;3.13;;
39434;SDS011;66825;51.880;-0.518;2023-09-19T09:29:52;8.23;;;3.10;;
39434;SDS011;66825;51.880;-0.518;2023-09-19T09:34:49;6.38;;;2.83;;
39434;SDS011;66825;51.880;-0.518;2023-09-19T09:37:16;8.23;;;3.22;;
39434;SDS011;66825;51.880;-0.518;2023-09-19T09:39:54;6.90;;;2.63;;
39434;SDS011;66825;51.880;-0.518;2023-09-19T09:42:37;10.32;;;3.17;;
39434;SDS011;66825;51.880;-0.518;2023-09-19T09:45:13;9.07;;;3.25;;
39434;SDS011;66825;51.880;-0.518;2023-09-19T09:47:46;7.25;;;2.83;;
39434;SDS011;66825;51.880;-0.518;2023-09-19T09:50:27;6.97;;;2.35;;
39434;SDS011;66825;51.880;-0.518;2023-09-19T09:53:28;5.57;;;2.55;;
39434;SDS011;66825;51.880;-0.518;2023-09-19T09:56:07;5.07;;;2.17;;
39434;SDS011;66825;51.880;-0.518;2023-09-19T10:01:13;5.22;;;2.35;;
39434;SDS011;66825;51.880;-0.518;2023-09-19T10:03:41;8.10;;;2.38;;
39434;SDS011;66825;51.880;-0.518;2023-09-19T10:06:14;5.32;;;2.50;;
39434;SDS011;66825;51.880;-0.518;2023-09-19T10:08:59;9.15;;;2.83;;
39434;SDS011;66825;51.880;-0.518;2023-09-19T10:11:41;7.00;;;2.60;;
39434;SDS011;66825;51.880;-0.518;2023-09-19T10:14:16;5.93;;;2.40;;
39434;SDS011;66825;51.880;-0.518;2023-09-19T10:16:46;6.13;;;2.55;;
39434;SDS011;66825;51.880;-0.518;2023-09-19T10:22:15;5.78;;;2.40;;
39434;SDS011;66825;51.880;-0.518;2023-09-19T10:24:46;15.82;;;3.35;;
39434;SDS011;66825;51.880;-0.518;2023-09-19T10:27:17;5.53;;;2.10;;
39434;SDS011;66825;51.880;-0.518;2023-09-19T10:29:44;8.15;;;2.60;;
39434;SDS011;66825;51.880;-0.518;2023-09-19T10:32:15;8.80;;;2.60;;
39434;SDS011;66825;51.880;-0.518;2023-09-19T10:34:44;5.72;;;1.95;;
39434;SDS011;66825;51.880;-0.518;2023-09-19T10:37:12;4.65;;;2.20;;
39434;SDS011;66825;51.880;-0.518;2023-09-19T10:39:40;7.80;;;2.05;;
39434;SDS011;66825;51.880;-0.518;2023-09-19T10:42:07;5.78;;;2.03;;
39434;SDS011;66825;51.880;-0.518;2023-09-19T10:44:37;6.35;;;1.98;;
39434;SDS011;66825;51.880;-0.518;2023-09-19T10:47:09;4.90;;;2.15;;
39434;SDS011;66825;51.880;-0.518;2023-09-19T10:49:42;5.57;;;2.05;;
39434;SDS011;66825;51.880;-0.518;2023-09-19T10:52:11;6.55;;;2.00;;
39434;SDS011;66825;51.880;-0.518;2023-09-19T10:54:46;6.57;;;2.00;;
39434;SDS011;66825;51.880;-0.518;2023-09-19T10:57:22;5.78;;;2.08;;
39434;SDS011;66825;51.880;-0.518;2023-09-19T11:00:02;7.43;;;2.33;;
39434;SDS011;66825;51.880;-0.518;2023-09-19T11:05:36;5.95;;;1.90;;
39434;SDS011;66825;51.880;-0.518;2023-09-19T11:08:06;5.82;;;2.45;;
39434;SDS011;66825;51.880;-0.518;2023-09-19T11:13:23;6.32;;;2.60;;
39434;SDS011;66825;51.880;-0.518;2023-09-19T11:24:27;5.38;;;2.28;;
39434;SDS011;66825;51.880;-0.518;2023-09-19T11:27:12;5.40;;;2.10;;
39434;SDS011;66825;51.880;-0.518;2023-09-19T11:29:39;5.32;;;1.92;;
39434;SDS011;66825;51.880;-0.518;2023-09-19T11:32:05;5.20;;;2.10;;
39434;SDS011;66825;51.880;-0.518;2023-09-19T11:34:40;6.43;;;2.33;;
39434;SDS011;66825;51.880;-0.518;2023-09-19T11:39:39;8.65;;;2.40;;
39434;SDS011;66825;51.880;-0.518;2023-09-19T11:48:23;4.65;;;1.80;;
39434;SDS011;66825;51.880;-0.518;2023-09-19T11:50:52;4.00;;;1.83;;
39434;SDS011;66825;51.880;-0.518;2023-09-19T11:53:18;3.80;;;2.03;;
39434;SDS011;66825;51.880;-0.518;2023-09-19T11:55:45;5.45;;;2.08;;
39434;SDS011;66825;51.880;-0.518;2023-09-19T11:58:11;7.68;;;2.42;;
39434;SDS011;66825;51.880;-0.518;2023-09-19T12:00:39;19.52;;;6.82;;
39434;SDS011;66825;51.880;-0.518;2023-09-19T12:03:10;7.22;;;2.28;;
39434;SDS011;66825;51.880;-0.518;2023-09-19T12:05:36;6.28;;;2.00;;
39434;SDS011;66825;51.880;-0.518;2023-09-19T12:08:03;6.82;;;2.20;;
39434;SDS011;66825;51.880;-0.518;2023-09-19T12:10:32;7.60;;;2.17;;
39434;SDS011;66825;51.880;-0.518;2023-09-19T12:12:58;9.98;;;2.70;;
39434;SDS011;66825;51.880;-0.518;2023-09-19T12:15:27;9.15;;;2.60;;
39434;SDS011;66825;51.880;-0.518;2023-09-19T12:17:59;7.18;;;2.38;;
39434;SDS011;66825;51.880;-0.518;2023-09-19T12:20:40;8.00;;;2.45;;
39434;SDS011;66825;51.880;-0.518;2023-09-19T12:23:13;6.55;;;2.05;;
39434;SDS011;66825;51.880;-0.518;2023-09-19T12:25:42;4.53;;;1.80;;
39434;SDS011;66825;51.880;-0.518;2023-09-19T12:28:12;5.80;;;2.10;;
39434;SDS011;66825;51.880;-0.518;2023-09-19T12:30:37;8.60;;;2.10;;
39434;SDS011;66825;51.880;-0.518;2023-09-19T12:33:14;4.13;;;1.50;;
39434;SDS011;66825;51.880;-0.518;2023-09-19T12:35:41;4.28;;;1.63;;
39434;SDS011;66825;51.880;-0.518;2023-09-19T12:38:10;3.05;;;1.30;;
39434;SDS011;66825;51.880;-0.518;2023-09-19T12:40:37;5.85;;;1.85;;
39434;SDS011;66825;51.880;-0.518;2023-09-19T12:43:07;5.00;;;1.50;;
39434;SDS011;66825;51.880;-0.518;2023-09-19T12:45:34;7.72;;;2.05;;
39434;SDS011;66825;51.880;-0.518;2023-09-19T12:48:21;6.85;;;2.00;;
39434;SDS011;66825;51.880;-0.518;2023-09-19T12:53:36;3.10;;;1.45;;
39434;SDS011;66825;51.880;-0.518;2023-09-19T12:56:07;3.10;;;1.10;;
39434;SDS011;66825;51.880;-0.518;2023-09-19T12:58:47;2.95;;;1.10;;
39434;SDS011;66825;51.880;-0.518;2023-09-19T13:01:20;3.78;;;1.50;;
39434;SDS011;66825;51.880;-0.518;2023-09-19T13:06:49;4.80;;;1.70;;
39434;SDS011;66825;51.880;-0.518;2023-09-19T13:11:49;2.75;;;1.25;;
39434;SDS011;66825;51.880;-0.518;2023-09-19T13:14:22;2.05;;;1.00;;
39434;SDS011;66825;51.880;-0.518;2023-09-19T13:16:56;3.40;;;1.40;;
39434;SDS011;66825;51.880;-0.518;2023-09-19T13:19:38;3.65;;;1.20;;
39434;SDS011;66825;51.880;-0.518;2023-09-19T13:25:14;4.25;;;1.50;;
39434;SDS011;66825;51.880;-0.518;2023-09-19T13:27:52;2.25;;;1.00;;
39434;SDS011;66825;51.880;-0.518;2023-09-19T13:30:25;2.30;;;1.05;;
39434;SDS011;66825;51.880;-0.518;2023-09-19T13:32:52;2.80;;;1.10;;
39434;SDS011;66825;51.880;-0.518;2023-09-19T13:35:30;7.50;;;1.92;;
39434;SDS011;66825;51.880;-0.518;2023-09-19T13:37:56;4.63;;;1.50;;
39434;SDS011;66825;51.880;-0.518;2023-09-19T13:40:21;3.70;;;1.30;;
39434;SDS011;66825;51.880;-0.518;2023-09-19T13:42:47;4.53;;;1.10;;
39434;SDS011;66825;51.880;-0.518;2023-09-19T13:45:12;2.80;;;0.82;;
39434;SDS011;66825;51.880;-0.518;2023-09-19T13:47:40;2.10;;;0.90;;
39434;SDS011;66825;51.880;-0.518;2023-09-19T13:50:06;4.03;;;1.30;;
39434;SDS011;66825;51.880;-0.518;2023-09-19T13:52:32;2.75;;;0.98;;
39434;SDS011;66825;51.880;-0.518;2023-09-19T13:54:58;3.28;;;0.95;;
39434;SDS011;66825;51.880;-0.518;2023-09-19T13:57:24;4.43;;;1.20;;
39434;SDS011;66825;51.880;-0.518;2023-09-19T13:59:51;5.68;;;1.23;;
39434;SDS011;66825;51.880;-0.518;2023-09-19T14:02:18;2.88;;;1.00;;
39434;SDS011;66825;51.880;-0.518;2023-09-19T14:04:44;2.08;;;0.80;;
39434;SDS011;66825;51.880;-0.518;2023-09-19T14:07:10;2.15;;;0.80;;
39434;SDS011;66825;51.880;-0.518;2023-09-19T14:09:36;7.68;;;1.75;;
39434;SDS011;66825;51.880;-0.518;2023-09-19T14:12:02;3.40;;;1.08;;
39434;SDS011;66825;51.880;-0.518;2023-09-19T14:14:28;2.47;;;0.88;;
39434;SDS011;66825;51.880;-0.518;2023-09-19T14:16:53;4.65;;;1.10;;
39434;SDS011;66825;51.880;-0.518;2023-09-19T14:19:20;7.22;;;1.40;;
39434;SDS011;66825;51.880;-0.518;2023-09-19T14:21:45;4.25;;;1.00;;
39434;SDS011;66825;51.880;-0.518;2023-09-19T14:24:13;2.25;;;0.80;;
39434;SDS011;66825;51.880;-0.518;2023-09-19T14:26:41;2.08;;;0.80;;
39434;SDS011;66825;51.880;-0.518;2023-09-19T14:29:07;3.33;;;0.80;;
39434;SDS011;66825;51.880;-0.518;2023-09-19T14:31:39;4.15;;;1.15;;
39434;SDS011;66825;51.880;-0.518;2023-09-19T14:34:05;3.58;;;1.00;;
39434;SDS011;66825;51.880;-0.518;2023-09-19T14:36:31;1.65;;;0.80;;
39434;SDS011;66825;51.880;-0.518;2023-09-19T14:38:58;1.90;;;0.80;;
39434;SDS011;66825;51.880;-0.518;2023-09-19T14:41:24;2.72;;;0.90;;
39434;SDS011;66825;51.880;-0.518;2023-09-19T14:43:51;2.00;;;0.73;;
39434;SDS011;66825;51.880;-0.518;2023-09-19T14:46:17;2.88;;;0.93;;
39434;SDS011;66825;51.880;-0.518;2023-09-19T14:48:43;2.38;;;0.85;;
39434;SDS011;66825;51.880;-0.518;2023-09-19T14:51:11;2.05;;;1.00;;
39434;SDS011;66825;51.880;-0.518;2023-09-19T14:53:37;4.00;;;0.93;;
39434;SDS011;66825;51.880;-0.518;2023-09-19T14:56:03;1.85;;;0.80;;
39434;SDS011;66825;51.880;-0.518;2023-09-19T14:58:30;2.10;;;0.88;;
39434;SDS011;66825;51.880;-0.518;2023-09-19T15:01:06;1.63;;;0.80;;
39434;SDS011;66825;51.880;-0.518;2023-09-19T15:03:33;2.78;;;1.13;;
39434;SDS011;66825;51.880;-0.518;2023-09-19T15:06:03;1.85;;;0.80;;
39434;SDS011;66825;51.880;-0.518;2023-09-19T15:08:34;2.78;;;0.82;;
39434;SDS011;66825;51.880;-0.518;2023-09-19T15:11:03;2.47;;;0.70;;
39434;SDS011;66825;51.880;-0.518;2023-09-19T15:13:31;1.80;;;0.70;;
39434;SDS011;66825;51.880;-0.518;2023-09-19T15:16:03;1.85;;;0.70;;
39434;SDS011;66825;51.880;-0.518;2023-09-19T15:18:34;1.58;;;0.80;;
39434;SDS011;66825;51.880;-0.518;2023-09-19T15:21:03;3.72;;;1.00;;
39434;SDS011;66825;51.880;-0.518;2023-09-19T15:23:29;6.93;;;1.63;;
39434;SDS011;66825;51.880;-0.518;2023-09-19T15:25:57;5.65;;;1.30;;
39434;SDS011;66825;51.880;-0.518;2023-09-19T15:28:23;4.25;;;1.30;;
39434;SDS011;66825;51.880;-0.518;2023-09-19T15:30:49;4.80;;;1.17;;
39434;SDS011;66825;51.880;-0.518;2023-09-19T15:33:15;4.00;;;1.02;;
39434;SDS011;66825;51.880;-0.518;2023-09-19T15:35:40;3.42;;;0.93;;
39434;SDS011;66825;51.880;-0.518;2023-09-19T15:38:06;2.00;;;0.80;;
39434;SDS011;66825;51.880;-0.518;2023-09-19T15:40:32;3.28;;;0.90;;
39434;SDS011;66825;51.880;-0.518;2023-09-19T15:42:58;2.83;;;1.00;;